sensor_id;sensor_type;location;lat;lon;timestamp;temperature;humidity
32400;DHT22;45045;45.440;9.178;2023-04-24T00:00:16;20.50;99.90
32400;DHT22;45045;45.440;9.178;2023-04-24T00:02:43;20.60;99.90
32400;DHT22;45045;45.440;9.178;2023-04-24T00:05:15;20.60;99.90
32400;DHT22;45045;45.440;9.178;2023-04-24T00:07:41;20.60;99.90
32400;DHT22;45045;45.440;9.178;2023-04-24T00:10:07;20.40;99.90
32400;DHT22;45045;45.440;9.178;2023-04-24T00:12:32;20.50;99.90
32400;DHT22;45045;45.440;9.178;2023-04-24T00:14:58;20.50;99.90
32400;DHT22;45045;45.440;9.178;2023-04-24T00:17:23;20.60;99.90
32400;DHT22;45045;45.440;9.178;2023-04-24T00:19:49;20.70;99.90
32400;DHT22;45045;45.440;9.178;2023-04-24T00:22:16;20.50;99.90
32400;DHT22;45045;45.440;9.178;2023-04-24T00:24:42;20.50;99.90
32400;DHT22;45045;45.440;9.178;2023-04-24T00:27:08;20.30;99.90
32400;DHT22;45045;45.440;9.178;2023-04-24T00:29:33;20.60;99.90
32400;DHT22;45045;45.440;9.178;2023-04-24T00:31:59;20.50;99.90
32400;DHT22;45045;45.440;9.178;2023-04-24T00:34:24;20.40;99.90
32400;DHT22;45045;45.440;9.178;2023-04-24T00:36:50;20.40;99.90
32400;DHT22;45045;45.440;9.178;2023-04-24T00:39:20;20.20;99.90
32400;DHT22;45045;45.440;9.178;2023-04-24T00:41:46;20.10;99.90
32400;DHT22;45045;45.440;9.178;2023-04-24T00:44:12;20.30;99.90
32400;DHT22;45045;45.440;9.178;2023-04-24T00:46:38;20.40;99.90
32400;DHT22;45045;45.440;9.178;2023-04-24T00:49:04;20.40;99.90
32400;DHT22;45045;45.440;9.178;2023-04-24T00:51:30;20.00;99.90
32400;DHT22;45045;45.440;9.178;2023-04-24T00:53:56;19.90;99.90
32400;DHT22;45045;45.440;9.178;2023-04-24T00:56:21;19.80;99.90
32400;DHT22;45045;45.440;9.178;2023-04-24T00:58:47;19.80;99.90
32400;DHT22;45045;45.440;9.178;2023-04-24T01:01:12;19.90;99.90
32400;DHT22;45045;45.440;9.178;2023-04-24T01:03:38;20.20;99.90
32400;DHT22;45045;45.440;9.178;2023-04-24T01:06:05;20.10;99.90
32400;DHT22;45045;45.440;9.178;2023-04-24T01:08:30;20.00;99.90
32400;DHT22;45045;45.440;9.178;2023-04-24T01:10:56;19.90;99.90
32400;DHT22;45045;45.440;9.178;2023-04-24T01:13:22;20.00;99.90
32400;DHT22;45045;45.440;9.178;2023-04-24T01:15:48;19.90;99.90
32400;DHT22;45045;45.440;9.178;2023-04-24T01:18:14;19.80;99.90
32400;DHT22;45045;45.440;9.178;2023-04-24T01:20:40;19.70;99.90
32400;DHT22;45045;45.440;9.178;2023-04-24T01:23:06;19.60;99.90
32400;DHT22;45045;45.440;9.178;2023-04-24T01:25:31;19.40;99.90
32400;DHT22;45045;45.440;9.178;2023-04-24T01:27:57;19.40;99.90
32400;DHT22;45045;45.440;9.178;2023-04-24T01:30:23;19.50;99.90
32400;DHT22;45045;45.440;9.178;2023-04-24T01:32:48;19.40;99.90
32400;DHT22;45045;45.440;9.178;2023-04-24T01:35:14;19.40;99.90
32400;DHT22;45045;45.440;9.178;2023-04-24T01:37:40;19.10;99.90
32400;DHT22;45045;45.440;9.178;2023-04-24T01:40:06;19.10;99.90
32400;DHT22;45045;45.440;9.178;2023-04-24T01:42:32;19.40;99.90
32400;DHT22;45045;45.440;9.178;2023-04-24T01:44:57;19.90;99.90
32400;DHT22;45045;45.440;9.178;2023-04-24T01:47:23;20.30;99.90
32400;DHT22;45045;45.440;9.178;2023-04-24T01:49:49;20.30;99.90
32400;DHT22;45045;45.440;9.178;2023-04-24T01:52:15;20.00;99.90
32400;DHT22;45045;45.440;9.178;2023-04-24T01:54:41;19.80;99.90
32400;DHT22;45045;45.440;9.178;2023-04-24T01:57:07;19.70;99.90
32400;DHT22;45045;45.440;9.178;2023-04-24T01:59:33;19.60;99.90
32400;DHT22;45045;45.440;9.178;2023-04-24T02:01:58;19.50;99.90
32400;DHT22;45045;45.440;9.178;2023-04-24T02:04:24;19.70;99.90
32400;DHT22;45045;45.440;9.178;2023-04-24T02:06:49;19.60;99.90
32400;DHT22;45045;45.440;9.178;2023-04-24T02:09:15;19.60;99.90
32400;DHT22;45045;45.440;9.178;2023-04-24T02:11:41;19.50;99.90
32400;DHT22;45045;45.440;9.178;2023-04-24T02:14:07;19.40;99.90
32400;DHT22;45045;45.440;9.178;2023-04-24T02:16:32;19.20;99.90
32400;DHT22;45045;45.440;9.178;2023-04-24T02:18:58;19.10;99.90
32400;DHT22;45045;45.440;9.178;2023-04-24T02:21:23;18.90;99.90
32400;DHT22;45045;45.440;9.178;2023-04-24T02:23:49;18.80;99.90
32400;DHT22;45045;45.440;9.178;2023-04-24T02:26:15;18.70;99.90
32400;DHT22;45045;45.440;9.178;2023-04-24T02:28:40;18.60;99.90
32400;DHT22;45045;45.440;9.178;2023-04-24T02:31:06;18.60;99.90
32400;DHT22;45045;45.440;9.178;2023-04-24T02:33:31;18.50;99.90
32400;DHT22;45045;45.440;9.178;2023-04-24T02:35:57;18.50;99.90
32400;DHT22;45045;45.440;9.178;2023-04-24T02:38:22;18.70;99.90
32400;DHT22;45045;45.440;9.178;2023-04-24T02:40:48;19.00;99.90
32400;DHT22;45045;45.440;9.178;2023-04-24T02:43:13;19.00;99.90
32400;DHT22;45045;45.440;9.178;2023-04-24T02:45:39;19.00;99.90
32400;DHT22;45045;45.440;9.178;2023-04-24T02:48:04;19.00;99.90
32400;DHT22;45045;45.440;9.178;2023-04-24T02:50:30;19.20;99.90
32400;DHT22;45045;45.440;9.178;2023-04-24T02:52:55;19.70;99.90
32400;DHT22;45045;45.440;9.178;2023-04-24T02:55:21;19.70;99.90
32400;DHT22;45045;45.440;9.178;2023-04-24T02:57:46;19.40;99.90
32400;DHT22;45045;45.440;9.178;2023-04-24T03:00:12;19.10;99.90
32400;DHT22;45045;45.440;9.178;2023-04-24T03:02:38;18.80;99.90
32400;DHT22;45045;45.440;9.178;2023-04-24T03:05:04;18.60;99.90
32400;DHT22;45045;45.440;9.178;2023-04-24T03:07:29;18.50;99.90
32400;DHT22;45045;45.440;9.178;2023-04-24T03:09:56;18.40;99.90
32400;DHT22;45045;45.440;9.178;2023-04-24T03:12:23;18.40;99.90
32400;DHT22;45045;45.440;9.178;2023-04-24T03:14:49;18.40;99.90
32400;DHT22;45045;45.440;9.178;2023-04-24T03:17:14;18.40;99.90
32400;DHT22;45045;45.440;9.178;2023-04-24T03:19:40;18.60;99.90
32400;DHT22;45045;45.440;9.178;2023-04-24T03:22:06;18.60;99.90
32400;DHT22;45045;45.440;9.178;2023-04-24T03:24:31;18.50;99.90
32400;DHT22;45045;45.440;9.178;2023-04-24T03:26:57;18.50;99.90
32400;DHT22;45045;45.440;9.178;2023-04-24T03:29:23;18.40;99.90
32400;DHT22;45045;45.440;9.178;2023-04-24T03:31:48;18.20;99.90
32400;DHT22;45045;45.440;9.178;2023-04-24T03:34:13;18.10;99.90
32400;DHT22;45045;45.440;9.178;2023-04-24T03:36:39;17.90;99.90
32400;DHT22;45045;45.440;9.178;2023-04-24T03:39:05;18.00;99.90
32400;DHT22;45045;45.440;9.178;2023-04-24T03:41:30;17.90;99.90
32400;DHT22;45045;45.440;9.178;2023-04-24T03:43:56;17.90;99.90
32400;DHT22;45045;45.440;9.178;2023-04-24T03:46:21;18.00;99.90
32400;DHT22;45045;45.440;9.178;2023-04-24T03:48:47;18.10;99.90
32400;DHT22;45045;45.440;9.178;2023-04-24T03:51:12;18.00;99.90
32400;DHT22;45045;45.440;9.178;2023-04-24T03:53:38;17.90;99.90
32400;DHT22;45045;45.440;9.178;2023-04-24T03:56:03;17.80;99.90
32400;DHT22;45045;45.440;9.178;2023-04-24T03:58:29;17.60;99.90
32400;DHT22;45045;45.440;9.178;2023-04-24T04:00:54;17.60;99.90
32400;DHT22;45045;45.440;9.178;2023-04-24T04:03:22;17.50;99.90
32400;DHT22;45045;45.440;9.178;2023-04-24T04:05:47;17.60;99.90
32400;DHT22;45045;45.440;9.178;2023-04-24T04:08:13;17.50;99.90
32400;DHT22;45045;45.440;9.178;2023-04-24T04:10:38;17.50;99.90
32400;DHT22;45045;45.440;9.178;2023-04-24T04:13:04;17.50;99.90
32400;DHT22;45045;45.440;9.178;2023-04-24T04:15:31;17.50;99.90
32400;DHT22;45045;45.440;9.178;2023-04-24T04:17:57;17.40;99.90
32400;DHT22;45045;45.440;9.178;2023-04-24T04:20:22;17.50;99.90
32400;DHT22;45045;45.440;9.178;2023-04-24T04:22:48;17.50;99.90
32400;DHT22;45045;45.440;9.178;2023-04-24T04:25:13;17.50;99.90
32400;DHT22;45045;45.440;9.178;2023-04-24T04:27:39;17.50;99.90
32400;DHT22;45045;45.440;9.178;2023-04-24T04:30:08;17.40;99.90
32400;DHT22;45045;45.440;9.178;2023-04-24T04:32:34;17.40;99.90
32400;DHT22;45045;45.440;9.178;2023-04-24T04:35:03;17.40;99.90
32400;DHT22;45045;45.440;9.178;2023-04-24T04:37:29;17.40;99.90
32400;DHT22;45045;45.440;9.178;2023-04-24T04:39:54;17.30;99.90
32400;DHT22;45045;45.440;9.178;2023-04-24T04:42:20;17.30;99.90
32400;DHT22;45045;45.440;9.178;2023-04-24T04:44:46;17.40;99.90
32400;DHT22;45045;45.440;9.178;2023-04-24T04:47:11;17.40;99.90
32400;DHT22;45045;45.440;9.178;2023-04-24T04:49:37;17.40;99.90
32400;DHT22;45045;45.440;9.178;2023-04-24T04:52:03;17.40;99.90
32400;DHT22;45045;45.440;9.178;2023-04-24T04:54:29;17.30;99.90
32400;DHT22;45045;45.440;9.178;2023-04-24T04:56:55;17.40;99.90
32400;DHT22;45045;45.440;9.178;2023-04-24T04:59:20;17.40;99.90
32400;DHT22;45045;45.440;9.178;2023-04-24T05:01:46;17.40;99.90
32400;DHT22;45045;45.440;9.178;2023-04-24T05:04:11;17.30;99.90
32400;DHT22;45045;45.440;9.178;2023-04-24T05:06:37;17.30;99.90
32400;DHT22;45045;45.440;9.178;2023-04-24T05:09:02;17.30;99.90
32400;DHT22;45045;45.440;9.178;2023-04-24T05:11:28;17.50;99.90
32400;DHT22;45045;45.440;9.178;2023-04-24T05:13:55;18.30;99.90
32400;DHT22;45045;45.440;9.178;2023-04-24T05:16:20;18.80;99.90
32400;DHT22;45045;45.440;9.178;2023-04-24T05:18:46;19.20;99.90
32400;DHT22;45045;45.440;9.178;2023-04-24T05:21:12;19.50;99.90
32400;DHT22;45045;45.440;9.178;2023-04-24T05:23:38;19.70;99.90
32400;DHT22;45045;45.440;9.178;2023-04-24T05:26:03;19.90;99.90
32400;DHT22;45045;45.440;9.178;2023-04-24T05:28:29;20.00;99.90
32400;DHT22;45045;45.440;9.178;2023-04-24T05:30:54;20.10;99.90
32400;DHT22;45045;45.440;9.178;2023-04-24T05:33:24;20.20;99.90
32400;DHT22;45045;45.440;9.178;2023-04-24T05:35:50;20.20;99.90
32400;DHT22;45045;45.440;9.178;2023-04-24T05:38:15;20.20;99.90
32400;DHT22;45045;45.440;9.178;2023-04-24T05:40:45;20.30;99.90
32400;DHT22;45045;45.440;9.178;2023-04-24T05:43:11;20.30;99.90
32400;DHT22;45045;45.440;9.178;2023-04-24T05:45:36;20.30;99.90
32400;DHT22;45045;45.440;9.178;2023-04-24T05:48:02;20.40;99.90
32400;DHT22;45045;45.440;9.178;2023-04-24T05:50:28;20.40;99.90
32400;DHT22;45045;45.440;9.178;2023-04-24T05:52:53;20.40;99.90
32400;DHT22;45045;45.440;9.178;2023-04-24T05:55:19;20.40;99.90
32400;DHT22;45045;45.440;9.178;2023-04-24T05:57:45;20.40;99.90
32400;DHT22;45045;45.440;9.178;2023-04-24T06:00:11;20.50;99.90
32400;DHT22;45045;45.440;9.178;2023-04-24T06:02:37;20.40;99.90
32400;DHT22;45045;45.440;9.178;2023-04-24T06:05:03;20.50;99.90
32400;DHT22;45045;45.440;9.178;2023-04-24T06:07:30;20.50;99.90
32400;DHT22;45045;45.440;9.178;2023-04-24T06:09:56;20.50;99.90
32400;DHT22;45045;45.440;9.178;2023-04-24T06:12:22;20.50;99.90
32400;DHT22;45045;45.440;9.178;2023-04-24T06:14:47;20.50;99.90
32400;DHT22;45045;45.440;9.178;2023-04-24T06:17:13;20.50;99.90
32400;DHT22;45045;45.440;9.178;2023-04-24T06:19:39;20.50;99.90
32400;DHT22;45045;45.440;9.178;2023-04-24T06:22:04;20.60;99.90
32400;DHT22;45045;45.440;9.178;2023-04-24T06:24:30;20.50;99.90
32400;DHT22;45045;45.440;9.178;2023-04-24T06:26:57;20.50;99.90
32400;DHT22;45045;45.440;9.178;2023-04-24T06:29:25;20.50;99.90
32400;DHT22;45045;45.440;9.178;2023-04-24T06:31:50;20.50;99.90
32400;DHT22;45045;45.440;9.178;2023-04-24T06:34:16;20.50;99.90
32400;DHT22;45045;45.440;9.178;2023-04-24T06:36:41;20.30;99.20
32400;DHT22;45045;45.440;9.178;2023-04-24T06:39:07;20.40;99.90
32400;DHT22;45045;45.440;9.178;2023-04-24T06:41:32;20.40;99.90
32400;DHT22;45045;45.440;9.178;2023-04-24T06:43:58;20.40;99.90
32400;DHT22;45045;45.440;9.178;2023-04-24T06:46:23;20.40;99.90
32400;DHT22;45045;45.440;9.178;2023-04-24T06:48:51;20.50;99.90
32400;DHT22;45045;45.440;9.178;2023-04-24T06:51:17;20.50;99.90
32400;DHT22;45045;45.440;9.178;2023-04-24T06:53:43;20.40;98.30
32400;DHT22;45045;45.440;9.178;2023-04-24T06:56:09;20.40;99.90
32400;DHT22;45045;45.440;9.178;2023-04-24T06:58:34;20.40;99.90
32400;DHT22;45045;45.440;9.178;2023-04-24T07:01:00;20.50;99.90
32400;DHT22;45045;45.440;9.178;2023-04-24T07:03:25;20.50;99.70
32400;DHT22;45045;45.440;9.178;2023-04-24T07:05:51;20.60;99.80
32400;DHT22;45045;45.440;9.178;2023-04-24T07:08:16;20.60;99.30
32400;DHT22;45045;45.440;9.178;2023-04-24T07:10:43;20.60;99.40
32400;DHT22;45045;45.440;9.178;2023-04-24T07:13:09;20.60;98.10
32400;DHT22;45045;45.440;9.178;2023-04-24T07:15:34;20.60;98.80
32400;DHT22;45045;45.440;9.178;2023-04-24T07:18:00;20.60;98.10
32400;DHT22;45045;45.440;9.178;2023-04-24T07:20:26;20.60;99.00
32400;DHT22;45045;45.440;9.178;2023-04-24T07:22:51;20.60;99.00
32400;DHT22;45045;45.440;9.178;2023-04-24T07:25:19;20.60;98.90
32400;DHT22;45045;45.440;9.178;2023-04-24T07:27:44;20.70;98.50
32400;DHT22;45045;45.440;9.178;2023-04-24T07:30:10;20.70;98.70
32400;DHT22;45045;45.440;9.178;2023-04-24T07:32:36;20.70;98.60
32400;DHT22;45045;45.440;9.178;2023-04-24T07:35:01;20.70;98.40
32400;DHT22;45045;45.440;9.178;2023-04-24T07:37:28;20.80;98.30
32400;DHT22;45045;45.440;9.178;2023-04-24T07:39:53;20.80;98.20
32400;DHT22;45045;45.440;9.178;2023-04-24T07:42:19;20.80;98.00
32400;DHT22;45045;45.440;9.178;2023-04-24T07:44:44;20.90;97.90
32400;DHT22;45045;45.440;9.178;2023-04-24T07:47:11;20.90;98.10
32400;DHT22;45045;45.440;9.178;2023-04-24T07:49:37;20.90;97.90
32400;DHT22;45045;45.440;9.178;2023-04-24T07:52:03;20.90;98.40
32400;DHT22;45045;45.440;9.178;2023-04-24T07:54:29;20.80;98.60
32400;DHT22;45045;45.440;9.178;2023-04-24T07:56:54;20.70;98.90
32400;DHT22;45045;45.440;9.178;2023-04-24T07:59:20;20.80;98.60
32400;DHT22;45045;45.440;9.178;2023-04-24T08:01:46;20.90;98.00
32400;DHT22;45045;45.440;9.178;2023-04-24T08:04:11;20.90;97.80
32400;DHT22;45045;45.440;9.178;2023-04-24T08:06:37;20.90;97.80
32400;DHT22;45045;45.440;9.178;2023-04-24T08:09:02;21.00;97.50
32400;DHT22;45045;45.440;9.178;2023-04-24T08:11:28;21.00;97.50
32400;DHT22;45045;45.440;9.178;2023-04-24T08:13:53;21.00;97.30
32400;DHT22;45045;45.440;9.178;2023-04-24T08:16:20;21.10;97.20
32400;DHT22;45045;45.440;9.178;2023-04-24T08:18:45;21.10;97.30
32400;DHT22;45045;45.440;9.178;2023-04-24T08:21:11;21.20;96.90
32400;DHT22;45045;45.440;9.178;2023-04-24T08:23:38;21.20;96.90
32400;DHT22;45045;45.440;9.178;2023-04-24T08:26:03;21.20;96.60
32400;DHT22;45045;45.440;9.178;2023-04-24T08:28:29;21.20;96.90
32400;DHT22;45045;45.440;9.178;2023-04-24T08:30:54;21.20;96.80
32400;DHT22;45045;45.440;9.178;2023-04-24T08:33:21;21.20;96.70
32400;DHT22;45045;45.440;9.178;2023-04-24T08:35:47;21.30;96.70
32400;DHT22;45045;45.440;9.178;2023-04-24T08:38:12;21.30;96.60
32400;DHT22;45045;45.440;9.178;2023-04-24T08:40:38;21.30;96.40
32400;DHT22;45045;45.440;9.178;2023-04-24T08:43:04;21.40;96.30
32400;DHT22;45045;45.440;9.178;2023-04-24T08:45:30;21.40;95.80
32400;DHT22;45045;45.440;9.178;2023-04-24T08:47:55;21.40;93.80
32400;DHT22;45045;45.440;9.178;2023-04-24T08:50:22;21.40;95.50
32400;DHT22;45045;45.440;9.178;2023-04-24T08:52:51;21.50;94.80
32400;DHT22;45045;45.440;9.178;2023-04-24T08:55:19;21.40;93.50
32400;DHT22;45045;45.440;9.178;2023-04-24T08:57:45;21.40;94.90
32400;DHT22;45045;45.440;9.178;2023-04-24T09:00:15;21.40;94.20
32400;DHT22;45045;45.440;9.178;2023-04-24T09:02:41;21.50;93.30
32400;DHT22;45045;45.440;9.178;2023-04-24T09:05:08;21.50;93.80
32400;DHT22;45045;45.440;9.178;2023-04-24T09:07:34;21.60;94.30
32400;DHT22;45045;45.440;9.178;2023-04-24T09:10:01;21.60;94.30
32400;DHT22;45045;45.440;9.178;2023-04-24T09:12:26;21.60;94.50
32400;DHT22;45045;45.440;9.178;2023-04-24T09:14:52;21.70;94.70
32400;DHT22;45045;45.440;9.178;2023-04-24T09:17:18;21.80;93.70
32400;DHT22;45045;45.440;9.178;2023-04-24T09:19:43;21.80;93.70
32400;DHT22;45045;45.440;9.178;2023-04-24T09:22:09;21.80;94.20
32400;DHT22;45045;45.440;9.178;2023-04-24T09:24:36;21.80;91.80
32400;DHT22;45045;45.440;9.178;2023-04-24T09:27:01;21.80;93.40
32400;DHT22;45045;45.440;9.178;2023-04-24T09:29:27;21.70;93.60
32400;DHT22;45045;45.440;9.178;2023-04-24T09:31:53;21.80;93.80
32400;DHT22;45045;45.440;9.178;2023-04-24T09:34:22;21.90;93.10
32400;DHT22;45045;45.440;9.178;2023-04-24T09:36:49;21.90;93.30
32400;DHT22;45045;45.440;9.178;2023-04-24T09:39:15;21.90;93.50
32400;DHT22;45045;45.440;9.178;2023-04-24T09:41:54;22.00;93.50
32400;DHT22;45045;45.440;9.178;2023-04-24T09:44:24;21.90;92.80
32400;DHT22;45045;45.440;9.178;2023-04-24T09:46:51;21.90;93.10
32400;DHT22;45045;45.440;9.178;2023-04-24T09:49:21;21.90;92.80
32400;DHT22;45045;45.440;9.178;2023-04-24T09:51:47;22.00;93.00
32400;DHT22;45045;45.440;9.178;2023-04-24T09:54:19;22.10;93.20
32400;DHT22;45045;45.440;9.178;2023-04-24T09:56:49;22.10;93.10
32400;DHT22;45045;45.440;9.178;2023-04-24T09:59:15;22.20;93.30
32400;DHT22;45045;45.440;9.178;2023-04-24T10:01:41;22.30;92.90
32400;DHT22;45045;45.440;9.178;2023-04-24T10:04:23;22.30;91.20
32400;DHT22;45045;45.440;9.178;2023-04-24T10:06:50;22.20;91.00
32400;DHT22;45045;45.440;9.178;2023-04-24T10:09:16;22.20;91.50
32400;DHT22;45045;45.440;9.178;2023-04-24T10:11:43;22.30;91.60
32400;DHT22;45045;45.440;9.178;2023-04-24T10:14:12;22.40;92.20
32400;DHT22;45045;45.440;9.178;2023-04-24T10:16:38;22.40;91.80
32400;DHT22;45045;45.440;9.178;2023-04-24T10:19:04;22.40;91.60
32400;DHT22;45045;45.440;9.178;2023-04-24T10:21:30;22.50;91.40
32400;DHT22;45045;45.440;9.178;2023-04-24T10:23:56;22.50;90.50
32400;DHT22;45045;45.440;9.178;2023-04-24T10:26:23;22.60;90.80
32400;DHT22;45045;45.440;9.178;2023-04-24T10:28:48;22.60;91.20
32400;DHT22;45045;45.440;9.178;2023-04-24T10:31:14;22.60;91.60
32400;DHT22;45045;45.440;9.178;2023-04-24T10:33:40;22.60;91.50
32400;DHT22;45045;45.440;9.178;2023-04-24T10:36:07;22.50;91.60
32400;DHT22;45045;45.440;9.178;2023-04-24T10:38:34;22.60;91.50
32400;DHT22;45045;45.440;9.178;2023-04-24T10:41:06;22.60;90.80
32400;DHT22;45045;45.440;9.178;2023-04-24T10:43:33;22.70;91.10
32400;DHT22;45045;45.440;9.178;2023-04-24T10:46:02;22.70;91.00
32400;DHT22;45045;45.440;9.178;2023-04-24T10:48:28;22.80;90.80
32400;DHT22;45045;45.440;9.178;2023-04-24T10:50:54;22.80;90.70
32400;DHT22;45045;45.440;9.178;2023-04-24T10:53:20;22.90;90.80
32400;DHT22;45045;45.440;9.178;2023-04-24T10:55:47;23.00;87.00
32400;DHT22;45045;45.440;9.178;2023-04-24T10:58:14;23.10;85.60
32400;DHT22;45045;45.440;9.178;2023-04-24T11:00:42;23.10;86.50
32400;DHT22;45045;45.440;9.178;2023-04-24T11:03:28;23.00;88.80
32400;DHT22;45045;45.440;9.178;2023-04-24T11:08:26;23.20;87.20
32400;DHT22;45045;45.440;9.178;2023-04-24T11:13:22;23.20;88.50
32400;DHT22;45045;45.440;9.178;2023-04-24T11:18:37;23.10;88.70
32400;DHT22;45045;45.440;9.178;2023-04-24T11:21:09;23.10;88.00
32400;DHT22;45045;45.440;9.178;2023-04-24T11:23:36;23.20;86.70
32400;DHT22;45045;45.440;9.178;2023-04-24T11:26:12;23.30;86.10
32400;DHT22;45045;45.440;9.178;2023-04-24T11:28:43;23.30;86.50
32400;DHT22;45045;45.440;9.178;2023-04-24T11:33:53;23.40;87.10
32400;DHT22;45045;45.440;9.178;2023-04-24T11:36:20;23.40;86.60
32400;DHT22;45045;45.440;9.178;2023-04-24T11:38:46;23.60;84.00
32400;DHT22;45045;45.440;9.178;2023-04-24T11:41:12;23.90;82.00
32400;DHT22;45045;45.440;9.178;2023-04-24T11:43:38;23.90;79.00
32400;DHT22;45045;45.440;9.178;2023-04-24T11:46:04;24.00;81.70
32400;DHT22;45045;45.440;9.178;2023-04-24T11:48:30;24.10;80.60
32400;DHT22;45045;45.440;9.178;2023-04-24T11:51:01;24.20;81.30
32400;DHT22;45045;45.440;9.178;2023-04-24T11:53:27;24.20;81.20
32400;DHT22;45045;45.440;9.178;2023-04-24T11:55:52;24.20;80.80
32400;DHT22;45045;45.440;9.178;2023-04-24T11:58:20;24.30;80.10
32400;DHT22;45045;45.440;9.178;2023-04-24T12:00:54;24.30;80.70
32400;DHT22;45045;45.440;9.178;2023-04-24T12:03:20;24.40;80.00
32400;DHT22;45045;45.440;9.178;2023-04-24T12:05:46;24.50;79.80
32400;DHT22;45045;45.440;9.178;2023-04-24T12:08:11;24.60;79.90
32400;DHT22;45045;45.440;9.178;2023-04-24T12:10:37;24.60;79.50
32400;DHT22;45045;45.440;9.178;2023-04-24T12:13:02;24.60;79.50
32400;DHT22;45045;45.440;9.178;2023-04-24T12:15:28;24.60;79.50
32400;DHT22;45045;45.440;9.178;2023-04-24T12:17:54;24.70;77.70
32400;DHT22;45045;45.440;9.178;2023-04-24T12:20:31;24.70;78.60
32400;DHT22;45045;45.440;9.178;2023-04-24T12:22:57;24.80;78.80
32400;DHT22;45045;45.440;9.178;2023-04-24T12:25:24;24.80;79.00
32400;DHT22;45045;45.440;9.178;2023-04-24T12:30:40;24.90;76.80
32400;DHT22;45045;45.440;9.178;2023-04-24T12:33:06;24.90;77.20
32400;DHT22;45045;45.440;9.178;2023-04-24T12:35:32;24.90;77.20
32400;DHT22;45045;45.440;9.178;2023-04-24T12:38:05;25.00;78.20
32400;DHT22;45045;45.440;9.178;2023-04-24T12:40:31;25.00;75.80
32400;DHT22;45045;45.440;9.178;2023-04-24T12:42:57;25.00;75.10
32400;DHT22;45045;45.440;9.178;2023-04-24T12:45:22;25.00;74.10
32400;DHT22;45045;45.440;9.178;2023-04-24T12:47:50;25.10;73.30
32400;DHT22;45045;45.440;9.178;2023-04-24T12:50:19;25.20;71.50
32400;DHT22;45045;45.440;9.178;2023-04-24T12:52:44;25.20;72.10
32400;DHT22;45045;45.440;9.178;2023-04-24T12:55:10;25.10;68.70
32400;DHT22;45045;45.440;9.178;2023-04-24T12:57:37;25.10;71.50
32400;DHT22;45045;45.440;9.178;2023-04-24T13:00:04;25.10;70.20
32400;DHT22;45045;45.440;9.178;2023-04-24T13:02:30;25.10;69.60
32400;DHT22;45045;45.440;9.178;2023-04-24T13:04:58;25.00;71.60
32400;DHT22;45045;45.440;9.178;2023-04-24T13:07:24;25.10;69.50
32400;DHT22;45045;45.440;9.178;2023-04-24T13:09:50;25.10;68.30
32400;DHT22;45045;45.440;9.178;2023-04-24T13:12:16;25.20;68.00
32400;DHT22;45045;45.440;9.178;2023-04-24T13:14:42;25.00;66.30
32400;DHT22;45045;45.440;9.178;2023-04-24T13:17:07;24.90;67.70
32400;DHT22;45045;45.440;9.178;2023-04-24T13:19:37;25.10;68.40
32400;DHT22;45045;45.440;9.178;2023-04-24T13:22:03;25.10;66.50
32400;DHT22;45045;45.440;9.178;2023-04-24T13:24:29;25.20;67.40
32400;DHT22;45045;45.440;9.178;2023-04-24T13:26:56;25.20;64.40
32400;DHT22;45045;45.440;9.178;2023-04-24T13:29:22;25.30;64.00
32400;DHT22;45045;45.440;9.178;2023-04-24T13:31:49;25.40;64.10
32400;DHT22;45045;45.440;9.178;2023-04-24T13:34:15;25.40;66.20
32400;DHT22;45045;45.440;9.178;2023-04-24T13:36:40;25.40;66.20
32400;DHT22;45045;45.440;9.178;2023-04-24T13:39:06;25.50;61.90
32400;DHT22;45045;45.440;9.178;2023-04-24T13:41:32;25.60;62.90
32400;DHT22;45045;45.440;9.178;2023-04-24T13:43:58;25.70;61.40
32400;DHT22;45045;45.440;9.178;2023-04-24T13:46:23;25.40;67.20
32400;DHT22;45045;45.440;9.178;2023-04-24T13:48:49;25.30;68.40
32400;DHT22;45045;45.440;9.178;2023-04-24T13:51:15;25.40;60.80
32400;DHT22;45045;45.440;9.178;2023-04-24T13:53:40;25.60;59.10
32400;DHT22;45045;45.440;9.178;2023-04-24T13:56:06;25.70;57.40
32400;DHT22;45045;45.440;9.178;2023-04-24T13:58:31;25.70;59.00
32400;DHT22;45045;45.440;9.178;2023-04-24T14:01:02;25.40;54.70
32400;DHT22;45045;45.440;9.178;2023-04-24T14:03:28;25.50;55.10
32400;DHT22;45045;45.440;9.178;2023-04-24T14:05:54;25.60;55.10
32400;DHT22;45045;45.440;9.178;2023-04-24T14:08:20;25.70;53.50
32400;DHT22;45045;45.440;9.178;2023-04-24T14:10:45;25.80;52.60
32400;DHT22;45045;45.440;9.178;2023-04-24T14:13:11;25.80;48.40
32400;DHT22;45045;45.440;9.178;2023-04-24T14:15:37;25.70;49.90
32400;DHT22;45045;45.440;9.178;2023-04-24T14:18:02;25.70;49.00
32400;DHT22;45045;45.440;9.178;2023-04-24T14:20:28;25.70;50.00
32400;DHT22;45045;45.440;9.178;2023-04-24T14:22:54;25.80;49.40
32400;DHT22;45045;45.440;9.178;2023-04-24T14:25:19;25.80;49.40
32400;DHT22;45045;45.440;9.178;2023-04-24T14:27:45;25.90;49.20
32400;DHT22;45045;45.440;9.178;2023-04-24T14:30:12;25.90;48.30
32400;DHT22;45045;45.440;9.178;2023-04-24T14:32:38;25.90;49.20
32400;DHT22;45045;45.440;9.178;2023-04-24T14:35:04;25.90;48.80
32400;DHT22;45045;45.440;9.178;2023-04-24T14:37:29;26.00;49.00
32400;DHT22;45045;45.440;9.178;2023-04-24T14:39:55;26.00;47.20
32400;DHT22;45045;45.440;9.178;2023-04-24T14:42:21;26.00;48.30
32400;DHT22;45045;45.440;9.178;2023-04-24T14:44:46;26.00;48.00
32400;DHT22;45045;45.440;9.178;2023-04-24T14:47:12;26.10;48.70
32400;DHT22;45045;45.440;9.178;2023-04-24T14:49:37;26.10;48.50
32400;DHT22;45045;45.440;9.178;2023-04-24T14:52:03;26.10;48.00
32400;DHT22;45045;45.440;9.178;2023-04-24T14:54:28;26.00;48.30
32400;DHT22;45045;45.440;9.178;2023-04-24T14:56:54;26.10;48.40
32400;DHT22;45045;45.440;9.178;2023-04-24T14:59:22;26.00;47.20
32400;DHT22;45045;45.440;9.178;2023-04-24T15:01:47;25.90;47.90
32400;DHT22;45045;45.440;9.178;2023-04-24T15:04:13;25.90;46.90
32400;DHT22;45045;45.440;9.178;2023-04-24T15:06:38;25.90;46.40
32400;DHT22;45045;45.440;9.178;2023-04-24T15:09:04;25.80;45.30
32400;DHT22;45045;45.440;9.178;2023-04-24T15:11:29;25.80;48.50
32400;DHT22;45045;45.440;9.178;2023-04-24T15:13:55;25.80;48.50
32400;DHT22;45045;45.440;9.178;2023-04-24T15:16:21;25.70;46.40
32400;DHT22;45045;45.440;9.178;2023-04-24T15:18:47;25.80;46.50
32400;DHT22;45045;45.440;9.178;2023-04-24T15:21:12;25.80;46.60
32400;DHT22;45045;45.440;9.178;2023-04-24T15:23:38;25.80;48.60
32400;DHT22;45045;45.440;9.178;2023-04-24T15:26:03;25.90;48.40
32400;DHT22;45045;45.440;9.178;2023-04-24T15:28:29;26.00;49.00
32400;DHT22;45045;45.440;9.178;2023-04-24T15:30:55;25.90;46.70
32400;DHT22;45045;45.440;9.178;2023-04-24T15:33:20;25.90;46.40
32400;DHT22;45045;45.440;9.178;2023-04-24T15:35:46;25.70;46.10